createdAt,value
2019-04-11T00:00:23.570Z,7.77
2019-04-11T00:00:52.053Z,7.83
2019-04-11T00:01:33.708Z,7.87
2019-04-11T00:01:53.422Z,7.82
2019-04-11T00:02:20.599Z,7.8
2019-04-11T00:02:49.016Z,7.69
2019-04-11T00:03:17.418Z,7.7
2019-04-11T00:03:45.732Z,7.69
2019-04-11T00:04:15.692Z,7.83
2019-04-11T00:04:46.310Z,7.72
2019-04-11T00:05:16.788Z,7.75
2019-04-11T00:05:47.178Z,7.75
2019-04-11T00:06:17.193Z,7.69
2019-04-11T00:06:47.766Z,7.72
2019-04-11T00:07:14.284Z,7.7
2019-04-11T00:07:42.540Z,7.69
2019-04-11T00:08:12.119Z,7.69
2019-04-11T00:08:39.498Z,7.73
2019-04-11T00:09:08.158Z,7.67
2019-04-11T00:09:38.750Z,7.75
2019-04-11T00:10:08.234Z,7.76
2019-04-11T00:10:37.466Z,7.7
2019-04-11T00:11:05.908Z,7.7
2019-04-11T00:11:33.576Z,7.63
2019-04-11T00:12:01.980Z,7.67
2019-04-11T00:12:30.497Z,7.67
2019-04-11T00:13:01.085Z,7.63
2019-04-11T00:13:33.285Z,7.73
2019-04-11T00:14:00.808Z,7.72
2019-04-11T00:14:29.638Z,7.56
2019-04-11T00:14:57.738Z,7.54
2019-04-11T00:15:25.231Z,7.56
2019-04-11T00:15:54.917Z,7.5
2019-04-11T00:16:25.533Z,7.51
2019-04-11T00:16:55.399Z,7.54
2019-04-11T00:17:25.827Z,7.58
2019-04-11T00:17:52.365Z,7.54
2019-04-11T00:18:20.863Z,7.58
2019-04-11T00:18:51.301Z,7.53
2019-04-11T00:19:19.100Z,7.57
2019-04-11T00:19:47.393Z,7.56
2019-04-11T00:20:15.960Z,7.51
2019-04-11T00:20:44.455Z,7.53
2019-04-11T00:21:12.817Z,7.58
2019-04-11T00:21:42.014Z,7.57
2019-04-11T00:22:11.079Z,7.51
2019-04-11T00:22:38.531Z,7.45
2019-04-11T00:23:06.643Z,7.42
2019-04-11T00:23:36.397Z,7.43
2019-04-11T00:24:07.061Z,7.42
2019-04-11T00:24:34.617Z,7.42
2019-04-11T00:25:03.147Z,7.48
2019-04-11T00:25:31.661Z,7.43
2019-04-11T00:25:58.538Z,7.45
2019-04-11T00:26:26.315Z,7.4
2019-04-11T00:26:56.885Z,7.43
2019-04-11T00:27:26.718Z,7.39
2019-04-11T00:27:57.213Z,7.38
2019-04-11T00:28:27.750Z,7.42
2019-04-11T00:28:58.232Z,7.42
2019-04-11T00:29:28.188Z,7.35
2019-04-11T00:29:57.604Z,7.38
2019-04-11T00:30:26.263Z,7.42
2019-04-11T00:30:56.586Z,7.32
2019-04-11T00:31:25.925Z,7.2
2019-04-11T00:31:54.891Z,7.2
2019-04-11T00:32:25.386Z,7.15
2019-04-11T00:32:56.037Z,7.28
2019-04-11T00:33:24.663Z,7.33
2019-04-11T00:33:51.736Z,7.28
2019-04-11T00:34:20.616Z,7.24
2019-04-11T00:34:49.757Z,7.31
2019-04-11T00:35:17.938Z,7.29
2019-04-11T00:35:45.996Z,7.2
2019-04-11T00:36:16.508Z,7.24
2019-04-11T00:36:46.329Z,7.2
2019-04-11T00:37:14.139Z,7.13
2019-04-11T00:37:41.224Z,7.15
2019-04-11T00:38:11.508Z,7.23
2019-04-11T00:38:42.126Z,7.21
2019-04-11T00:39:11.145Z,7.18
2019-04-11T00:39:37.644Z,7.18
2019-04-11T00:40:06.829Z,7.24
2019-04-11T00:40:35.458Z,7.28
2019-04-11T00:41:04.122Z,7.23
2019-04-11T00:41:34.195Z,7.24
2019-04-11T00:42:02.010Z,7.18
2019-04-11T00:42:30.432Z,7.17
2019-04-11T00:42:58.901Z,7.23
2019-04-11T00:43:31.478Z,7.18
2019-04-11T00:43:54.613Z,7.21
2019-04-11T00:44:23.030Z,7.2
2019-04-11T00:44:51.370Z,7.23
2019-04-11T00:45:21.264Z,7.07
2019-04-11T00:45:48.865Z,7.15
2019-04-11T00:46:18.106Z,7.2
2019-04-11T00:46:46.699Z,7.17
2019-04-11T00:47:17.153Z,7.17
2019-04-11T00:47:47.011Z,7.2
2019-04-11T00:48:17.532Z,7.21
2019-04-11T00:48:44.030Z,7.2
2019-04-11T00:49:12.358Z,7.21
2019-04-11T00:49:42.909Z,7.18
2019-04-11T00:50:12.741Z,7.2
2019-04-11T00:50:40.278Z,7.23
2019-04-11T00:51:09.711Z,7.18
2019-04-11T00:51:38.117Z,7.18
2019-04-11T00:52:06.647Z,7.28
2019-04-11T00:52:33.618Z,7.21
2019-04-11T00:53:03.546Z,7.18
2019-04-11T00:53:30.970Z,7.24
2019-04-11T00:53:58.306Z,7.18
2019-04-11T00:54:28.872Z,7.23
2019-04-11T00:54:59.393Z,7.21
2019-04-11T00:55:29.327Z,7.23
2019-04-11T00:55:59.830Z,7.17
2019-04-11T00:56:26.261Z,7.18
2019-04-11T00:56:56.671Z,7.15
2019-04-11T00:57:25.170Z,7.18
2019-04-11T00:57:53.101Z,7.21
2019-04-11T00:58:21.328Z,7.13
2019-04-11T00:58:50.021Z,7.11
2019-04-11T00:59:18.418Z,7.1
2019-04-11T00:59:46.749Z,7.07
2019-04-11T01:00:15.154Z,7.1
2019-04-11T01:00:45.021Z,7
2019-04-11T01:01:12.550Z,7.1
2019-04-11T01:01:40.882Z,7.07
2019-04-11T01:02:11.389Z,7.06
2019-04-11T01:02:42.221Z,7.06
2019-04-11T01:03:09.705Z,7.03
2019-04-11T01:03:38.011Z,7.13
2019-04-11T01:04:07.468Z,7.15
2019-04-11T01:04:34.903Z,7.11
2019-04-11T01:05:02.453Z,7.06
2019-04-11T01:05:29.775Z,7.06
2019-04-11T01:05:58.234Z,6.97
2019-04-11T01:06:23.472Z,6.99
2019-04-11T01:06:52.224Z,7.06
2019-04-11T01:07:22.566Z,7.18
2019-04-11T01:07:53.368Z,7.18
2019-04-11T01:08:23.874Z,7.2
2019-04-11T01:08:53.695Z,7.18
2019-04-11T01:09:21.120Z,7.18
2019-04-11T01:09:48.564Z,7.21
2019-04-11T01:10:18.137Z,7.23
2019-04-11T01:10:45.580Z,7.21
2019-04-11T01:11:16.032Z,7.2
2019-04-11T01:11:45.784Z,7.15
2019-04-11T01:12:16.448Z,7.21
2019-04-11T01:12:46.749Z,7.23
2019-04-11T01:13:14.063Z,7.2
2019-04-11T01:13:47.651Z,7.18
2019-04-11T01:14:09.752Z,7.2
2019-04-11T01:14:39.145Z,7.21
2019-04-11T01:15:06.785Z,7.25
2019-04-11T01:15:34.194Z,7.31
2019-04-11T01:16:02.861Z,7.28
2019-04-11T01:16:32.617Z,7.32
2019-04-11T01:17:01.199Z,7.31
2019-04-11T01:17:29.508Z,7.43
2019-04-11T01:17:57.909Z,7.43
2019-04-11T01:18:25.700Z,7.31
2019-04-11T01:18:52.050Z,7.24
2019-04-11T01:19:19.535Z,7.17
2019-04-11T01:19:46.864Z,7.28
2019-04-11T01:20:17.393Z,7.29
2019-04-11T01:20:46.155Z,7.29
2019-04-11T01:21:13.441Z,7.28
2019-04-11T01:21:40.379Z,7.43
2019-04-11T01:22:08.275Z,7.29
2019-04-11T01:22:35.124Z,7.31
2019-04-11T01:23:02.735Z,7.32
2019-04-11T01:23:31.182Z,7.29
2019-04-11T01:23:59.605Z,7.29
2019-04-11T01:24:25.992Z,7.39
2019-04-11T01:24:53.355Z,7.24
2019-04-11T01:25:22.160Z,7.28
2019-04-11T01:25:49.674Z,7.29
2019-04-11T01:26:17.021Z,7.29
2019-04-11T01:26:47.520Z,7.35
2019-04-11T01:27:16.048Z,7.31
2019-04-11T01:27:43.790Z,7.25
2019-04-11T01:28:14.239Z,7.31
2019-04-11T01:28:42.873Z,7.29
2019-04-11T01:29:13.322Z,7.29
2019-04-11T01:29:39.765Z,7.31
2019-04-11T01:30:08.176Z,7.24
2019-04-11T01:30:36.665Z,7.32
2019-04-11T01:31:03.741Z,7.32
2019-04-11T01:31:31.297Z,7.29
2019-04-11T01:31:58.422Z,7.18
2019-04-11T01:32:28.454Z,7.24
2019-04-11T01:32:54.854Z,7.29
2019-04-11T01:33:24.106Z,7.31
2019-04-11T01:33:53.864Z,7.15
2019-04-11T01:34:21.412Z,7.18
2019-04-11T01:34:50.929Z,7.17
2019-04-11T01:35:20.036Z,7.17
2019-04-11T01:35:49.806Z,7.24
2019-04-11T01:36:18.525Z,7.17
2019-04-11T01:36:46.966Z,7.17
2019-04-11T01:37:15.518Z,7.25
2019-04-11T01:37:42.150Z,7.18
2019-04-11T01:38:10.317Z,7.21
2019-04-11T01:38:40.774Z,7.23
2019-04-11T01:39:10.635Z,7.2
2019-04-11T01:39:38.079Z,7.2
2019-04-11T01:40:07.653Z,7.2
2019-04-11T01:40:35.995Z,7.14
2019-04-11T01:41:04.474Z,7.17
2019-04-11T01:41:31.886Z,7.21
2019-04-11T01:42:00.715Z,7.17
2019-04-11T01:42:31.237Z,7.21
2019-04-11T01:43:01.794Z,7.28
2019-04-11T01:43:29.578Z,7.31
2019-04-11T01:44:03.669Z,7.2
2019-04-11T01:44:30.428Z,7.23
2019-04-11T01:45:01.023Z,7.18
2019-04-11T01:45:31.573Z,7.2
2019-04-11T01:45:57.973Z,7.17
2019-04-11T01:46:26.405Z,7.21
2019-04-11T01:46:56.270Z,7.15
2019-04-11T01:47:26.788Z,7.24
2019-04-11T01:47:57.362Z,7.21
2019-04-11T01:48:23.681Z,7.2
2019-04-11T01:48:52.092Z,7.07
2019-04-11T01:49:21.879Z,7.02
2019-04-11T01:49:49.309Z,7.07
2019-04-11T01:50:16.811Z,7.14
2019-04-11T01:50:45.240Z,7.11
2019-04-11T01:51:13.726Z,7.1
2019-04-11T01:51:42.152Z,7.13
2019-04-11T01:52:10.387Z,7.11
2019-04-11T01:52:38.280Z,7.18
2019-04-11T01:53:05.399Z,7.17
2019-04-11T01:53:33.180Z,7.1
2019-04-11T01:54:03.329Z,7.17
2019-04-11T01:54:32.079Z,7.2
2019-04-11T01:55:02.008Z,7.24
2019-04-11T01:55:32.327Z,7.23
2019-04-11T01:56:02.797Z,7.11
2019-04-11T01:56:33.503Z,7.14
2019-04-11T01:57:02.063Z,7.05
2019-04-11T01:57:29.522Z,7.02
2019-04-11T01:57:56.883Z,7.11
2019-04-11T01:58:24.718Z,7.03
2019-04-11T01:58:53.863Z,6.99
2019-04-11T01:59:23.596Z,7
2019-04-11T01:59:53.379Z,7.02
2019-04-11T02:00:23.981Z,7.06
2019-04-11T02:00:50.895Z,7.06
2019-04-11T02:01:18.826Z,6.99
2019-04-11T02:01:49.092Z,7.07
2019-04-11T02:02:19.145Z,7.07
2019-04-11T02:02:47.537Z,7.06
2019-04-11T02:03:14.967Z,7.05
2019-04-11T02:03:43.587Z,7.02
2019-04-11T02:04:11.929Z,7.07
2019-04-11T02:04:40.360Z,7.02
2019-04-11T02:05:10.474Z,7.05
2019-04-11T02:05:41.135Z,7
2019-04-11T02:06:11.760Z,7
2019-04-11T02:06:40.300Z,6.97
2019-04-11T02:07:07.748Z,6.89
2019-04-11T02:07:36.544Z,6.87
2019-04-11T02:08:07.096Z,6.92
2019-04-11T02:08:33.502Z,6.85
2019-04-11T02:09:01.900Z,6.92
2019-04-11T02:09:32.351Z,6.92
2019-04-11T02:10:02.477Z,6.88
2019-04-11T02:10:30.391Z,6.89
2019-04-11T02:10:59.350Z,6.79
2019-04-11T02:11:27.605Z,6.79
2019-04-11T02:11:56.136Z,6.82
2019-04-11T02:12:22.552Z,6.92
2019-04-11T02:12:53.244Z,6.92
2019-04-11T02:13:22.410Z,6.89
2019-04-11T02:13:50.390Z,6.85
2019-04-11T02:14:21.085Z,6.93
2019-04-11T02:14:47.950Z,6.79
2019-04-11T02:15:16.379Z,6.79
2019-04-11T02:15:44.880Z,6.72
2019-04-11T02:16:12.620Z,6.72
2019-04-11T02:16:41.108Z,6.64
2019-04-11T02:17:10.427Z,6.72
2019-04-11T02:17:39.094Z,6.74
2019-04-11T02:18:07.552Z,6.78
2019-04-11T02:18:37.341Z,6.78
2019-04-11T02:19:06.472Z,6.72
2019-04-11T02:19:34.472Z,6.78
2019-04-11T02:20:02.773Z,6.82
2019-04-11T02:20:33.332Z,6.87
2019-04-11T02:21:03.216Z,6.81
2019-04-11T02:21:33.674Z,6.87
2019-04-11T02:22:04.208Z,6.79
2019-04-11T02:22:34.733Z,6.79
2019-04-11T02:23:04.605Z,6.75
2019-04-11T02:23:32.010Z,6.88
2019-04-11T02:23:59.414Z,6.87
2019-04-11T02:24:29.939Z,6.79
2019-04-11T02:24:56.293Z,6.79
2019-04-11T02:25:24.722Z,6.87
2019-04-11T02:25:52.462Z,6.85
2019-04-11T02:26:20.871Z,6.87
2019-04-11T02:26:50.350Z,6.92
2019-04-11T02:27:21.004Z,6.81
2019-04-11T02:27:48.557Z,6.82
2019-04-11T02:28:17.752Z,6.85
2019-04-11T02:28:44.646Z,6.82
2019-04-11T02:29:13.006Z,6.85
2019-04-11T02:29:38.932Z,6.82
2019-04-11T02:30:08.743Z,6.87
2019-04-11T02:30:39.117Z,6.87
2019-04-11T02:31:07.643Z,6.82
2019-04-11T02:31:36.765Z,6.7
2019-04-11T02:32:05.392Z,6.72
2019-04-11T02:32:36.509Z,6.67
2019-04-11T02:33:06.975Z,6.62
2019-04-11T02:33:37.073Z,6.6
2019-04-11T02:34:08.593Z,6.7
2019-04-11T02:34:37.055Z,6.72
2019-04-11T02:35:07.653Z,6.78
2019-04-11T02:35:35.318Z,6.75
2019-04-11T02:36:05.059Z,6.79
2019-04-11T02:36:33.413Z,6.75
2019-04-11T02:37:02.351Z,6.74
2019-04-11T02:37:31.650Z,6.78
2019-04-11T02:38:00.816Z,6.78
2019-04-11T02:38:30.487Z,6.74
2019-04-11T02:39:04.433Z,6.81
2019-04-11T02:39:31.562Z,6.69
2019-04-11T02:40:00.058Z,6.64
2019-04-11T02:40:29.994Z,6.66
2019-04-11T02:41:01.140Z,6.56
2019-04-11T02:41:29.725Z,6.66
2019-04-11T02:41:59.079Z,6.6
2019-04-11T02:42:27.740Z,6.51
2019-04-11T02:42:57.248Z,6.59
2019-04-11T02:43:25.851Z,6.62
2019-04-11T02:43:57.465Z,6.6
2019-04-11T02:44:34.462Z,6.6
2019-04-11T02:45:12.996Z,6.57
2019-04-11T02:45:39.625Z,6.74
2019-04-11T02:46:09.666Z,6.69
2019-04-11T02:46:35.167Z,6.72
2019-04-11T02:47:05.025Z,6.67
2019-04-11T02:47:31.727Z,6.57
2019-04-11T02:47:57.265Z,6.57
2019-04-11T02:48:26.879Z,6.63
2019-04-11T02:48:56.564Z,6.6
2019-04-11T02:49:27.543Z,6.6
2019-04-11T02:49:55.186Z,6.62
2019-04-11T02:50:25.943Z,6.63
2019-04-11T02:50:56.468Z,6.56
2019-04-11T02:51:24.801Z,6.57
2019-04-11T02:51:55.688Z,6.6
2019-04-11T02:52:25.085Z,6.52
2019-04-11T02:52:52.936Z,6.54
2019-04-11T02:53:21.382Z,6.41
2019-04-11T02:53:51.892Z,6.41
2019-04-11T02:54:24.347Z,6.41
2019-04-11T02:54:50.358Z,6.54
2019-04-11T02:55:17.076Z,6.52
2019-04-11T02:55:46.532Z,6.57
2019-04-11T02:56:14.901Z,6.52
2019-04-11T02:56:43.455Z,6.63
2019-04-11T02:57:12.059Z,6.62
2019-04-11T02:57:42.680Z,6.6
2019-04-11T02:58:12.446Z,6.59
2019-04-11T02:58:43.993Z,6.54
2019-04-11T02:59:13.460Z,6.52
2019-04-11T02:59:40.912Z,6.52
2019-04-11T03:00:12.851Z,6.54
2019-04-11T03:00:42.171Z,6.49
2019-04-11T03:01:12.725Z,6.56
2019-04-11T03:01:39.839Z,6.6
2019-04-11T03:02:07.387Z,6.62
2019-04-11T03:02:37.005Z,6.6
2019-04-11T03:03:05.648Z,6.54
2019-04-11T03:03:34.816Z,6.54
2019-04-11T03:04:04.852Z,6.49
2019-04-11T03:04:34.772Z,6.49
2019-04-11T03:05:05.331Z,6.51
2019-04-11T03:05:33.063Z,6.46
2019-04-11T03:06:02.617Z,6.52
2019-04-11T03:06:30.944Z,6.54
2019-04-11T03:07:00.001Z,6.49
2019-04-11T03:07:27.509Z,6.46
2019-04-11T03:07:56.370Z,6.44
2019-04-11T03:08:26.715Z,6.46
2019-04-11T03:08:57.500Z,6.49
2019-04-11T03:09:24.819Z,6.57
2019-04-11T03:09:53.521Z,6.45
2019-04-11T03:10:21.407Z,6.52
2019-04-11T03:10:51.332Z,6.52
2019-04-11T03:11:21.382Z,6.51
2019-04-11T03:11:47.187Z,6.48
2019-04-11T03:12:16.437Z,6.33
2019-04-11T03:12:47.567Z,6.35
2019-04-11T03:13:16.746Z,6.51
2019-04-11T03:13:48.503Z,6.42
2019-04-11T03:14:18.978Z,6.49
2019-04-11T03:15:05.143Z,6.52
2019-04-11T03:15:31.547Z,6.44
2019-04-11T03:15:59.123Z,6.42
2019-04-11T03:16:32.527Z,6.41
2019-04-11T03:16:57.201Z,6.51
2019-04-11T03:17:22.899Z,6.48
2019-04-11T03:17:46.565Z,6.51
2019-04-11T03:18:35.461Z,6.56
2019-04-11T03:18:58.791Z,6.52
2019-04-11T03:19:29.413Z,6.49
2019-04-11T03:19:58.959Z,6.42
2019-04-11T03:20:26.264Z,6.44
2019-04-11T03:20:49.454Z,6.46
2019-04-11T03:21:20.311Z,6.35
2019-04-11T03:21:46.863Z,6.31
2019-04-11T03:22:14.206Z,6.38
2019-04-11T03:22:44.945Z,6.46
2019-04-11T03:23:16.199Z,6.39
2019-04-11T03:23:44.004Z,6.49
2019-04-11T03:24:10.811Z,6.39
2019-04-11T03:24:40.596Z,6.44
2019-04-11T03:25:09.498Z,6.41
2019-04-11T03:25:38.579Z,6.42
2019-04-11T03:26:07.509Z,6.42
2019-04-11T03:26:37.724Z,6.39
2019-04-11T03:27:07.659Z,6.41
2019-04-11T03:27:37.640Z,6.45
2019-04-11T03:28:10.950Z,6.42
2019-04-11T03:28:36.256Z,6.44
2019-04-11T03:29:06.271Z,6.44
2019-04-11T03:29:36.294Z,6.35
2019-04-11T03:30:07.769Z,6.35
2019-04-11T03:30:53.897Z,6.45
2019-04-11T03:31:41.408Z,6.46
2019-04-11T03:32:16.531Z,6.38
2019-04-11T03:33:24.023Z,6.38
2019-04-11T03:34:58.079Z,6.3
2019-04-11T03:37:05.892Z,6.36
2019-04-11T03:37:22.907Z,6.36
2019-04-11T03:37:32.937Z,6.35
2019-04-11T03:38:03.394Z,6.3
2019-04-11T03:38:36.304Z,6.31
2019-04-11T03:39:05.300Z,6.28
2019-04-11T03:39:37.352Z,6.24
2019-04-11T03:40:04.138Z,6.3
2019-04-11T03:40:30.298Z,6.24
2019-04-11T03:41:04.061Z,6.17
2019-04-11T03:41:31.865Z,6.3
2019-04-11T03:42:03.777Z,6.28
2019-04-11T03:42:30.461Z,6.28
2019-04-11T03:43:01.066Z,6.31
2019-04-11T03:43:29.595Z,6.16
2019-04-11T03:43:58.816Z,6.22
2019-04-11T03:44:25.261Z,6.12
2019-04-11T03:45:11.096Z,6.07
2019-04-11T03:45:36.229Z,6.07
2019-04-11T03:46:07.979Z,6.19
2019-04-11T03:46:37.234Z,6.16
2019-04-11T03:47:08.230Z,6.19
2019-04-11T03:47:34.676Z,6.17
2019-04-11T03:48:05.362Z,6.26
2019-04-11T03:48:32.784Z,6.2
2019-04-11T03:49:01.101Z,6.31
2019-04-11T03:49:31.457Z,6.16
2019-04-11T03:49:55.735Z,6.12
2019-04-11T03:50:23.613Z,6.14
2019-04-11T03:50:52.309Z,6.16
2019-04-11T03:51:21.052Z,6.12
2019-04-11T03:51:50.690Z,6.11
2019-04-11T03:52:19.280Z,6.14
2019-04-11T03:52:49.314Z,6.2
2019-04-11T03:53:17.661Z,6.11
2019-04-11T03:53:45.065Z,6.12
2019-04-11T03:54:13.737Z,6.05
2019-04-11T03:54:42.821Z,6.04
2019-04-11T03:55:13.157Z,5.93
2019-04-11T03:55:43.330Z,6.04
2019-04-11T03:56:11.980Z,5.99
2019-04-11T03:56:39.269Z,6.05
2019-04-11T03:57:09.663Z,6.01
2019-04-11T03:57:39.362Z,6.04
2019-04-11T03:58:09.333Z,6.04
2019-04-11T03:58:39.699Z,6.11
2019-04-11T03:59:12.165Z,6.07
2019-04-11T03:59:40.667Z,6.07
2019-04-11T04:00:10.093Z,6.09
2019-04-11T04:00:42.576Z,6.07
2019-04-11T04:01:11.432Z,6.11
2019-04-11T04:01:38.136Z,6.05
2019-04-11T04:02:07.632Z,6.01
2019-04-11T04:02:37.090Z,6.01
2019-04-11T04:03:05.927Z,6.05
2019-04-11T04:03:36.583Z,6.02
2019-04-11T04:04:04.134Z,5.97
2019-04-11T04:04:35.213Z,5.99
2019-04-11T04:05:03.916Z,6.04
2019-04-11T04:05:36.217Z,6.04
2019-04-11T04:06:01.893Z,5.99
2019-04-11T04:06:32.527Z,5.98
2019-04-11T04:07:00.235Z,5.98
2019-04-11T04:07:29.741Z,5.94
2019-04-11T04:07:59.652Z,5.99
2019-04-11T04:08:26.947Z,5.94
2019-04-11T04:08:55.483Z,5.97
2019-04-11T04:09:24.755Z,5.93
2019-04-11T04:09:53.676Z,5.91
2019-04-11T04:10:23.631Z,5.98
2019-04-11T04:10:53.651Z,6.01
2019-04-11T04:11:26.677Z,5.89
2019-04-11T04:11:54.516Z,6.04
2019-04-11T04:12:22.711Z,5.99
2019-04-11T04:12:51.598Z,6.01
2019-04-11T04:13:23.124Z,6.02
2019-04-11T04:13:51.753Z,5.98
2019-04-11T04:14:21.936Z,6.04
2019-04-11T04:14:51.432Z,5.94
2019-04-11T04:15:35.584Z,5.97
2019-04-11T04:15:59.516Z,6.07
2019-04-11T04:16:25.774Z,5.98
2019-04-11T04:16:54.284Z,6.04
2019-04-11T04:17:23.470Z,6.09
2019-04-11T04:17:52.016Z,6.07
2019-04-11T04:18:21.196Z,6.08
2019-04-11T04:18:48.594Z,6.04
2019-04-11T04:19:18.312Z,5.99
2019-04-11T04:19:47.335Z,6.05
2019-04-11T04:20:16.688Z,6.05
2019-04-11T04:20:43.871Z,6.01
2019-04-11T04:21:11.243Z,5.99
2019-04-11T04:21:40.646Z,5.98
2019-04-11T04:22:10.980Z,6.01
2019-04-11T04:22:42.013Z,5.99
2019-04-11T04:23:11.848Z,5.98
2019-04-11T04:23:38.827Z,5.89
2019-04-11T04:24:08.596Z,5.94
2019-04-11T04:24:40.340Z,5.94
2019-04-11T04:25:08.228Z,5.9
2019-04-11T04:25:36.723Z,5.97
2019-04-11T04:26:05.962Z,5.97
2019-04-11T04:26:35.542Z,5.94
2019-04-11T04:27:06.996Z,5.9
2019-04-11T04:27:34.315Z,5.98
2019-04-11T04:28:03.131Z,5.98
2019-04-11T04:28:31.666Z,5.97
2019-04-11T04:28:59.809Z,5.98
2019-04-11T04:29:29.466Z,6.05
2019-04-11T04:30:01.533Z,5.94
2019-04-11T04:30:27.745Z,6.01
2019-04-11T04:30:57.852Z,6.02
2019-04-11T04:31:24.674Z,6.05
2019-04-11T04:31:53.234Z,5.98
2019-04-11T04:32:22.727Z,6.01
2019-04-11T04:32:52.012Z,5.93
2019-04-11T04:33:22.009Z,5.89
2019-04-11T04:33:51.385Z,6.01
2019-04-11T04:34:21.817Z,6.05
2019-04-11T04:34:50.608Z,5.99
2019-04-11T04:35:19.501Z,5.94
2019-04-11T04:35:47.292Z,5.98
2019-04-11T04:36:17.720Z,6.01
2019-04-11T04:36:47.171Z,6.05
2019-04-11T04:37:16.104Z,5.86
2019-04-11T04:37:45.363Z,5.83
2019-04-11T04:38:15.645Z,5.89
2019-04-11T04:38:44.343Z,5.8
2019-04-11T04:39:12.502Z,5.8
2019-04-11T04:39:40.363Z,5.79
2019-04-11T04:40:23.212Z,5.75
2019-04-11T04:40:50.735Z,5.75
2019-04-11T04:41:19.589Z,5.86
2019-04-11T04:41:45.511Z,5.84
2019-04-11T04:42:17.936Z,5.79
2019-04-11T04:42:45.613Z,5.68
2019-04-11T04:43:11.822Z,5.69
2019-04-11T04:43:41.290Z,5.72
2019-04-11T04:44:12.545Z,5.71
2019-04-11T04:44:42.787Z,5.71
2019-04-11T04:45:11.751Z,5.73
2019-04-11T04:45:56.265Z,5.72
2019-04-11T04:46:25.823Z,5.8
2019-04-11T04:46:52.384Z,5.76
2019-04-11T04:47:16.352Z,5.86
2019-04-11T04:47:46.812Z,5.84
2019-04-11T04:48:11.765Z,5.75
2019-04-11T04:48:38.201Z,5.76
2019-04-11T04:49:09.135Z,5.76
2019-04-11T04:49:36.442Z,5.72
2019-04-11T04:50:04.583Z,5.79
2019-04-11T04:50:34.205Z,5.8
2019-04-11T04:51:08.234Z,5.86
2019-04-11T04:51:35.135Z,5.72
2019-04-11T04:52:06.052Z,5.75
2019-04-11T04:52:36.491Z,5.75
2019-04-11T04:53:02.942Z,5.72
2019-04-11T04:53:33.014Z,5.69
2019-04-11T04:54:00.620Z,5.71
2019-04-11T04:54:30.698Z,5.76
2019-04-11T04:54:59.410Z,5.79
2019-04-11T04:55:30.259Z,5.75
2019-04-11T04:56:00.281Z,5.84
2019-04-11T04:56:32.182Z,5.75
2019-04-11T04:57:00.940Z,5.86
2019-04-11T04:57:31.200Z,5.86
2019-04-11T04:58:01.395Z,5.76
2019-04-11T04:58:26.938Z,5.8
2019-04-11T04:58:56.171Z,5.86
2019-04-11T04:59:23.614Z,5.87
2019-04-11T04:59:50.124Z,5.68
2019-04-11T05:00:18.802Z,5.8
2019-04-11T05:00:45.783Z,5.83
2019-04-11T05:01:15.511Z,5.87
2019-04-11T05:01:44.219Z,5.83
2019-04-11T05:02:13.226Z,5.87
2019-04-11T05:02:44.037Z,5.9
2019-04-11T05:03:13.487Z,5.87
2019-04-11T05:03:44.486Z,5.89
2019-04-11T05:04:11.321Z,5.87
2019-04-11T05:04:40.477Z,5.91
2019-04-11T05:05:11.303Z,5.89
2019-04-11T05:05:39.067Z,5.99
2019-04-11T05:06:07.614Z,5.94
2019-04-11T05:06:34.645Z,5.91
2019-04-11T05:07:05.257Z,5.93
2019-04-11T05:07:34.968Z,5.91
2019-04-11T05:08:02.828Z,5.73
2019-04-11T05:08:32.600Z,5.84
2019-04-11T05:09:01.893Z,5.79
2019-04-11T05:09:32.000Z,5.72
2019-04-11T05:09:58.706Z,5.82
2019-04-11T05:10:28.457Z,5.72
2019-04-11T05:10:55.835Z,5.75
2019-04-11T05:11:26.084Z,5.82
2019-04-11T05:11:53.119Z,5.8
2019-04-11T05:12:22.588Z,5.84
2019-04-11T05:12:51.360Z,5.84
2019-04-11T05:13:19.521Z,5.84
2019-04-11T05:13:50.344Z,5.75
2019-04-11T05:14:15.691Z,5.73
2019-04-11T05:14:45.458Z,5.82
2019-04-11T05:15:14.394Z,5.76
2019-04-11T05:15:45.266Z,5.84
2019-04-11T05:16:17.025Z,5.86
2019-04-11T05:16:37.599Z,5.89
2019-04-11T05:17:06.709Z,5.89
2019-04-11T05:17:34.483Z,5.9
2019-04-11T05:18:04.060Z,5.94
2019-04-11T05:18:34.171Z,5.9
2019-04-11T05:19:01.945Z,5.97
2019-04-11T05:19:30.479Z,5.99
2019-04-11T05:19:57.004Z,5.97
2019-04-11T05:20:24.957Z,5.98
2019-04-11T05:20:52.727Z,6.04
2019-04-11T05:21:21.267Z,5.99
2019-04-11T05:21:47.843Z,5.99
2019-04-11T05:22:16.771Z,6.05
2019-04-11T05:22:44.599Z,5.98
2019-04-11T05:23:11.949Z,5.98
2019-04-11T05:23:40.003Z,5.93
2019-04-11T05:24:07.217Z,5.87
2019-04-11T05:24:34.736Z,5.97
2019-04-11T05:25:03.485Z,5.99
2019-04-11T05:25:30.599Z,6.05
2019-04-11T05:25:57.133Z,6.08
2019-04-11T05:26:27.765Z,6.02
2019-04-11T05:26:53.357Z,6.11
2019-04-11T05:27:20.924Z,6.09
2019-04-11T05:27:48.098Z,6.11
2019-04-11T05:28:17.269Z,6.17
2019-04-11T05:28:44.395Z,6.24
2019-04-11T05:29:11.523Z,6.2
2019-04-11T05:29:37.687Z,6.22
2019-04-11T05:30:06.965Z,6.22
2019-04-11T05:30:34.643Z,6.3
2019-04-11T05:31:02.556Z,6.26
2019-04-11T05:31:30.298Z,6.24
2019-04-11T05:31:57.458Z,6.27
2019-04-11T05:32:27.562Z,6.11
2019-04-11T05:32:55.786Z,6.12
2019-04-11T05:33:23.266Z,6.08
2019-04-11T05:33:51.810Z,6.12
2019-04-11T05:34:20.171Z,6.2
2019-04-11T05:34:49.011Z,6.24
2019-04-11T05:35:17.112Z,6.19
2019-04-11T05:35:44.767Z,6.19
2019-04-11T05:36:12.273Z,6.2
2019-04-11T05:36:42.816Z,6.17
2019-04-11T05:37:09.075Z,6.05
2019-04-11T05:37:39.623Z,6.11
2019-04-11T05:38:08.352Z,6.08
2019-04-11T05:38:35.941Z,6.19
2019-04-11T05:39:03.502Z,6.12
2019-04-11T05:39:31.664Z,6.02
2019-04-11T05:39:58.855Z,6.12
2019-04-11T05:40:26.047Z,6.19
2019-04-11T05:40:54.529Z,6.14
2019-04-11T05:41:24.613Z,6.2
2019-04-11T05:41:52.219Z,6.19
2019-04-11T05:42:24.056Z,6.05
2019-04-11T05:42:52.574Z,6.08
2019-04-11T05:43:19.827Z,6.05
2019-04-11T05:43:47.958Z,6.02
2019-04-11T05:44:17.443Z,5.94
2019-04-11T05:44:47.070Z,6.04
2019-04-11T05:45:18.186Z,6.05
2019-04-11T05:45:43.232Z,6.08
2019-04-11T05:46:25.946Z,6.09
2019-04-11T05:46:51.967Z,6.14
2019-04-11T05:47:18.067Z,6.12
2019-04-11T05:47:43.482Z,6.19
2019-04-11T05:48:11.616Z,6.14
2019-04-11T05:48:40.988Z,6.24
2019-04-11T05:49:09.305Z,6.17
2019-04-11T05:49:40.676Z,6.22
2019-04-11T05:50:09.118Z,6.24
2019-04-11T05:50:34.636Z,6.26
2019-04-11T05:51:01.771Z,6.22
2019-04-11T05:51:36.707Z,6.24
2019-04-11T05:52:01.934Z,6.33
2019-04-11T05:52:31.023Z,6.36
2019-04-11T05:52:59.995Z,6.28
2019-04-11T05:53:27.838Z,6.24
2019-04-11T05:53:55.806Z,6.28
2019-04-11T05:54:25.988Z,6.17
2019-04-11T05:54:55.037Z,6.17
2019-04-11T05:55:23.849Z,6.19
2019-04-11T05:55:53.210Z,6.16
2019-04-11T05:56:21.759Z,6.08
2019-04-11T05:56:53.850Z,6.01
2019-04-11T05:57:22.477Z,6.08
2019-04-11T05:57:48.311Z,6.08
2019-04-11T05:58:18.232Z,6.09
2019-04-11T05:58:47.426Z,6.07
2019-04-11T05:59:15.194Z,6.16
2019-04-11T05:59:45.865Z,6.16
2019-04-11T06:00:15.820Z,6.07
2019-04-11T06:00:44.434Z,6.05
2019-04-11T06:01:12.698Z,6.07
2019-04-11T06:01:38.301Z,5.97
2019-04-11T06:02:08.093Z,5.91
2019-04-11T06:02:35.285Z,5.83
2019-04-11T06:03:03.772Z,5.9
2019-04-11T06:03:34.203Z,5.93
2019-04-11T06:04:04.203Z,5.9
2019-04-11T06:04:34.454Z,5.9
2019-04-11T06:05:03.554Z,5.76
2019-04-11T06:05:33.732Z,5.75
2019-04-11T06:06:03.205Z,5.84
2019-04-11T06:06:34.226Z,5.87
2019-04-11T06:06:58.759Z,5.98
2019-04-11T06:07:28.994Z,5.84
2019-04-11T06:07:57.837Z,5.91
2019-04-11T06:08:27.525Z,5.97
2019-04-11T06:08:58.293Z,6.04
2019-04-11T06:09:24.018Z,6.07
2019-04-11T06:09:53.169Z,6.01
2019-04-11T06:10:21.907Z,5.91
2019-04-11T06:10:50.530Z,5.89
2019-04-11T06:11:21.192Z,5.91
2019-04-11T06:11:52.062Z,5.97
2019-04-11T06:12:19.085Z,5.98
2019-04-11T06:12:48.734Z,6.02
2019-04-11T06:13:16.385Z,6.07
2019-04-11T06:13:44.755Z,6.07
2019-04-11T06:14:13.094Z,6.04
2019-04-11T06:14:39.700Z,6.04
2019-04-11T06:15:07.821Z,6.01
2019-04-11T06:15:39.528Z,6.02
2019-04-11T06:16:04.722Z,5.97
2019-04-11T06:16:39.483Z,5.86
2019-04-11T06:17:02.423Z,5.73
2019-04-11T06:17:30.126Z,5.72
2019-04-11T06:17:58.637Z,5.69
2019-04-11T06:18:32.842Z,5.69
2019-04-11T06:18:58.680Z,5.72
2019-04-11T06:19:25.872Z,5.69
2019-04-11T06:19:55.655Z,5.93
2019-04-11T06:20:25.519Z,5.97
2019-04-11T06:20:53.737Z,6.01
2019-04-11T06:21:22.039Z,6.11
2019-04-11T06:21:52.575Z,6.02
2019-04-11T06:22:21.280Z,6.09
2019-04-11T06:22:48.481Z,6.09
2019-04-11T06:23:19.117Z,6.26
2019-04-11T06:23:45.679Z,6.16
2019-04-11T06:24:14.059Z,6.28
2019-04-11T06:24:44.445Z,6.26
2019-04-11T06:25:14.247Z,6.27
2019-04-11T06:25:46.664Z,6.31
2019-04-11T06:26:12.846Z,6.31
2019-04-11T06:26:38.997Z,6.36
2019-04-11T06:27:07.327Z,6.44
2019-04-11T06:27:36.287Z,6.31
2019-04-11T06:28:04.078Z,6.44
2019-04-11T06:28:31.596Z,6.49
2019-04-11T06:29:01.246Z,6.54
2019-04-11T06:29:31.312Z,6.48
2019-04-11T06:29:59.151Z,6.36
2019-04-11T06:30:26.466Z,6.36
2019-04-11T06:30:54.707Z,6.35